sensor_id;sensor_type;location;lat;lon;timestamp;pressure;altitude;pressure_sealevel;temperature;humidity
73981;BME280;62348;51.412;5.436;2023-09-18T00:02:06;100428.31;;;18.55;100.00
73981;BME280;62348;51.412;5.436;2023-09-18T00:04:31;100431.38;;;18.53;100.00
73981;BME280;62348;51.412;5.436;2023-09-18T00:06:57;100429.78;;;18.52;100.00
73981;BME280;62348;51.412;5.436;2023-09-18T00:09:22;100418.66;;;18.49;100.00
73981;BME280;62348;51.412;5.436;2023-09-18T00:11:48;100420.44;;;18.53;100.00
73981;BME280;62348;51.412;5.436;2023-09-18T00:14:13;100417.06;;;18.48;100.00
73981;BME280;62348;51.412;5.436;2023-09-18T00:16:38;100408.19;;;18.51;100.00
73981;BME280;62348;51.412;5.436;2023-09-18T00:19:04;100397.44;;;18.46;100.00
73981;BME280;62348;51.412;5.436;2023-09-18T00:21:31;100398.38;;;18.50;100.00
73981;BME280;62348;51.412;5.436;2023-09-18T00:23:57;100396.59;;;18.45;100.00
73981;BME280;62348;51.412;5.436;2023-09-18T00:26:25;100385.81;;;18.49;100.00
73981;BME280;62348;51.412;5.436;2023-09-18T00:28:51;100381.81;;;18.46;100.00
73981;BME280;62348;51.412;5.436;2023-09-18T00:31:16;100377.44;;;18.45;100.00
73981;BME280;62348;51.412;5.436;2023-09-18T00:33:41;100374.72;;;18.45;100.00
73981;BME280;62348;51.412;5.436;2023-09-18T00:36:07;100368.91;;;18.47;100.00
73981;BME280;62348;51.412;5.436;2023-09-18T00:38:32;100357.00;;;18.43;100.00
73981;BME280;62348;51.412;5.436;2023-09-18T00:40:58;100351.22;;;18.44;100.00
73981;BME280;62348;51.412;5.436;2023-09-18T00:43:23;100352.50;;;18.47;100.00
73981;BME280;62348;51.412;5.436;2023-09-18T00:45:49;100355.22;;;18.47;100.00
73981;BME280;62348;51.412;5.436;2023-09-18T00:48:15;100353.13;;;18.44;100.00
73981;BME280;62348;51.412;5.436;2023-09-18T00:50:43;100352.00;;;18.45;100.00
73981;BME280;62348;51.412;5.436;2023-09-18T00:53:09;100342.69;;;18.46;100.00
73981;BME280;62348;51.412;5.436;2023-09-18T00:55:37;100346.22;;;18.46;100.00
73981;BME280;62348;51.412;5.436;2023-09-18T00:58:04;100350.91;;;18.46;100.00
73981;BME280;62348;51.412;5.436;2023-09-18T01:00:29;100344.59;;;18.45;100.00
73981;BME280;62348;51.412;5.436;2023-09-18T01:02:55;100325.91;;;18.47;100.00
73981;BME280;62348;51.412;5.436;2023-09-18T01:05:21;100326.72;;;18.48;100.00
73981;BME280;62348;51.412;5.436;2023-09-18T01:07:46;100326.06;;;18.51;100.00
73981;BME280;62348;51.412;5.436;2023-09-18T01:10:12;100324.13;;;18.51;100.00
73981;BME280;62348;51.412;5.436;2023-09-18T01:12:52;100305.78;;;18.52;100.00
73981;BME280;62348;51.412;5.436;2023-09-18T01:15:27;100310.44;;;18.51;100.00
73981;BME280;62348;51.412;5.436;2023-09-18T01:17:55;100298.38;;;18.52;100.00
73981;BME280;62348;51.412;5.436;2023-09-18T01:20:20;100298.38;;;18.52;100.00
73981;BME280;62348;51.412;5.436;2023-09-18T01:22:45;100303.06;;;18.52;100.00
73981;BME280;62348;51.412;5.436;2023-09-18T01:25:11;100298.03;;;18.54;100.00
73981;BME280;62348;51.412;5.436;2023-09-18T01:27:36;100296.91;;;18.55;100.00
73981;BME280;62348;51.412;5.436;2023-09-18T01:30:02;100297.72;;;18.56;100.00
73981;BME280;62348;51.412;5.436;2023-09-18T01:32:30;100293.03;;;18.56;100.00
73981;BME280;62348;51.412;5.436;2023-09-18T01:34:57;100296.59;;;18.57;100.00
73981;BME280;62348;51.412;5.436;2023-09-18T01:37:29;100296.59;;;18.57;100.00
73981;BME280;62348;51.412;5.436;2023-09-18T01:39:56;100300.63;;;18.59;100.00
73981;BME280;62348;51.412;5.436;2023-09-18T01:42:26;100292.88;;;18.61;100.00
73981;BME280;62348;51.412;5.436;2023-09-18T01:44:53;100290.47;;;18.60;100.00
73981;BME280;62348;51.412;5.436;2023-09-18T01:47:20;100291.72;;;18.62;100.00
73981;BME280;62348;51.412;5.436;2023-09-18T01:49:47;100295.75;;;18.65;100.00
73981;BME280;62348;51.412;5.436;2023-09-18T01:52:12;100292.19;;;18.64;100.00
73981;BME280;62348;51.412;5.436;2023-09-18T01:54:38;100279.34;;;18.65;100.00
73981;BME280;62348;51.412;5.436;2023-09-18T01:57:04;100278.19;;;18.66;100.00
73981;BME280;62348;51.412;5.436;2023-09-18T01:59:30;100270.75;;;18.66;100.00
73981;BME280;62348;51.412;5.436;2023-09-18T02:01:56;100279.34;;;18.65;100.00
73981;BME280;62348;51.412;5.436;2023-09-18T02:04:22;100274.97;;;18.64;100.00
73981;BME280;62348;51.412;5.436;2023-09-18T02:06:49;100273.84;;;18.65;100.00
73981;BME280;62348;51.412;5.436;2023-09-18T02:09:15;100272.72;;;18.66;100.00
73981;BME280;62348;51.412;5.436;2023-09-18T02:11:43;100258.56;;;18.64;100.00
73981;BME280;62348;51.412;5.436;2023-09-18T02:14:09;100269.19;;;18.65;100.00
73981;BME280;62348;51.412;5.436;2023-09-18T02:16:36;100269.19;;;18.65;100.00
73981;BME280;62348;51.412;5.436;2023-09-18T02:19:02;100270.28;;;18.64;100.00
73981;BME280;62348;51.412;5.436;2023-09-18T02:21:28;100260.16;;;18.65;100.00
73981;BME280;62348;51.412;5.436;2023-09-18T02:23:54;100257.75;;;18.63;100.00
73981;BME280;62348;51.412;5.436;2023-09-18T02:26:21;100250.97;;;18.61;100.00
73981;BME280;62348;51.412;5.436;2023-09-18T02:28:46;100246.34;;;18.61;100.00
73981;BME280;62348;51.412;5.436;2023-09-18T02:31:12;100240.03;;;18.61;100.00
73981;BME280;62348;51.412;5.436;2023-09-18T02:33:39;100254.06;;;18.59;100.00
73981;BME280;62348;51.412;5.436;2023-09-18T02:36:05;100246.66;;;18.60;100.00
73981;BME280;62348;51.412;5.436;2023-09-18T02:38:32;100250.19;;;18.60;100.00
73981;BME280;62348;51.412;5.436;2023-09-18T02:40:58;100264.66;;;18.61;100.00
73981;BME280;62348;51.412;5.436;2023-09-18T02:43:23;100242.63;;;18.57;100.00
73981;BME280;62348;51.412;5.436;2023-09-18T02:45:49;100216.22;;;18.61;100.00
73981;BME280;62348;51.412;5.436;2023-09-18T02:48:15;100226.69;;;18.59;100.00
73981;BME280;62348;51.412;5.436;2023-09-18T02:50:41;100204.78;;;18.59;100.00
73981;BME280;62348;51.412;5.436;2023-09-18T02:53:07;100195.44;;;18.60;100.00
73981;BME280;62348;51.412;5.436;2023-09-18T02:55:36;100193.03;;;18.59;100.00
73981;BME280;62348;51.412;5.436;2023-09-18T02:58:02;100192.69;;;18.60;100.00
73981;BME280;62348;51.412;5.436;2023-09-18T03:00:27;100193.03;;;18.59;100.00
73981;BME280;62348;51.412;5.436;2023-09-18T03:02:52;100190.59;;;18.57;100.00
73981;BME280;62348;51.412;5.436;2023-09-18T03:05:18;100195.63;;;18.55;100.00
73981;BME280;62348;51.412;5.436;2023-09-18T03:07:43;100178.41;;;18.54;100.00
73981;BME280;62348;51.412;5.436;2023-09-18T03:10:10;100160.03;;;18.55;100.00
73981;BME280;62348;51.412;5.436;2023-09-18T03:12:39;100161.97;;;18.54;100.00
73981;BME280;62348;51.412;5.436;2023-09-18T03:15:05;100174.88;;;18.54;100.00
73981;BME280;62348;51.412;5.436;2023-09-18T03:17:31;100183.88;;;18.54;100.00
73981;BME280;62348;51.412;5.436;2023-09-18T03:19:57;100198.34;;;18.55;100.00
73981;BME280;62348;51.412;5.436;2023-09-18T03:22:22;100191.28;;;18.54;100.00
73981;BME280;62348;51.412;5.436;2023-09-18T03:24:47;100214.31;;;18.53;100.00
73981;BME280;62348;51.412;5.436;2023-09-18T03:27:13;100218.19;;;18.52;100.00
73981;BME280;62348;51.412;5.436;2023-09-18T03:29:38;100203.34;;;18.53;100.00
73981;BME280;62348;51.412;5.436;2023-09-18T03:32:04;100199.81;;;18.52;100.00
73981;BME280;62348;51.412;5.436;2023-09-18T03:34:29;100190.81;;;18.52;100.00
73981;BME280;62348;51.412;5.436;2023-09-18T03:36:55;100199.50;;;18.54;100.00
73981;BME280;62348;51.412;5.436;2023-09-18T03:39:21;100201.91;;;18.56;100.00
73981;BME280;62348;51.412;5.436;2023-09-18T03:41:46;100192.56;;;18.57;100.00
73981;BME280;62348;51.412;5.436;2023-09-18T03:44:11;100200.44;;;18.58;100.00
73981;BME280;62348;51.412;5.436;2023-09-18T03:46:37;100203.19;;;18.58;100.00
73981;BME280;62348;51.412;5.436;2023-09-18T03:49:02;100206.72;;;18.59;100.00
73981;BME280;62348;51.412;5.436;2023-09-18T03:51:28;100189.63;;;18.62;100.00
73981;BME280;62348;51.412;5.436;2023-09-18T03:53:55;100186.91;;;18.62;100.00
73981;BME280;62348;51.412;5.436;2023-09-18T03:56:21;100199.44;;;18.63;100.00
73981;BME280;62348;51.412;5.436;2023-09-18T03:58:47;100184.94;;;18.62;100.00
73981;BME280;62348;51.412;5.436;2023-09-18T04:01:15;100199.09;;;18.64;100.00
73981;BME280;62348;51.412;5.436;2023-09-18T04:03:40;100209.25;;;18.64;100.00
73981;BME280;62348;51.412;5.436;2023-09-18T04:06:06;100215.22;;;18.66;100.00
73981;BME280;62348;51.412;5.436;2023-09-18T04:08:32;100206.66;;;18.67;100.00
73981;BME280;62348;51.412;5.436;2023-09-18T04:10:57;100208.25;;;18.68;100.00
73981;BME280;62348;51.412;5.436;2023-09-18T04:13:23;100187.97;;;18.69;100.00
73981;BME280;62348;51.412;5.436;2023-09-18T04:15:49;100187.97;;;18.69;100.00
73981;BME280;62348;51.412;5.436;2023-09-18T04:18:14;100180.09;;;18.68;100.00
73981;BME280;62348;51.412;5.436;2023-09-18T04:20:39;100170.75;;;18.69;100.00
73981;BME280;62348;51.412;5.436;2023-09-18T04:23:37;100179.91;;;18.73;100.00
73981;BME280;62348;51.412;5.436;2023-09-18T04:26:02;100166.88;;;18.70;100.00
73981;BME280;62348;51.412;5.436;2023-09-18T04:28:28;100164.94;;;18.70;100.00
73981;BME280;62348;51.412;5.436;2023-09-18T04:30:53;100159.47;;;18.70;100.00
73981;BME280;62348;51.412;5.436;2023-09-18T04:33:18;100162.22;;;18.70;100.00
73981;BME280;62348;51.412;5.436;2023-09-18T04:35:44;100162.69;;;18.72;100.00
73981;BME280;62348;51.412;5.436;2023-09-18T04:38:09;100139.94;;;18.72;100.00
73981;BME280;62348;51.412;5.436;2023-09-18T04:40:40;100124.34;;;18.72;100.00
73981;BME280;62348;51.412;5.436;2023-09-18T04:43:06;100124.69;;;18.71;100.00
73981;BME280;62348;51.412;5.436;2023-09-18T04:45:31;100128.53;;;18.70;100.00
73981;BME280;62348;51.412;5.436;2023-09-18T04:47:57;100125.00;;;18.69;100.00
73981;BME280;62348;51.412;5.436;2023-09-18T04:50:23;100116.78;;;18.69;100.00
73981;BME280;62348;51.412;5.436;2023-09-18T04:52:48;100116.78;;;18.69;100.00
73981;BME280;62348;51.412;5.436;2023-09-18T04:55:16;100114.38;;;18.68;100.00
73981;BME280;62348;51.412;5.436;2023-09-18T04:57:41;100123.75;;;18.67;100.00
73981;BME280;62348;51.412;5.436;2023-09-18T05:00:07;100117.44;;;18.66;100.00
73981;BME280;62348;51.412;5.436;2023-09-18T05:02:38;100118.59;;;18.65;100.00
73981;BME280;62348;51.412;5.436;2023-09-18T05:05:04;100112.66;;;18.63;100.00
73981;BME280;62348;51.412;5.436;2023-09-18T05:07:30;100118.44;;;18.62;100.00
73981;BME280;62348;51.412;5.436;2023-09-18T05:09:55;100121.19;;;18.62;100.00
73981;BME280;62348;51.412;5.436;2023-09-18T05:12:21;100128.94;;;18.60;100.00
73981;BME280;62348;51.412;5.436;2023-09-18T05:14:47;100125.72;;;18.58;100.00
73981;BME280;62348;51.412;5.436;2023-09-18T05:17:15;100128.47;;;18.58;100.00
73981;BME280;62348;51.412;5.436;2023-09-18T05:19:41;100117.84;;;18.56;100.00
73981;BME280;62348;51.412;5.436;2023-09-18T05:22:08;100124.44;;;18.55;100.00
73981;BME280;62348;51.412;5.436;2023-09-18T05:24:33;100115.75;;;18.53;100.00
73981;BME280;62348;51.412;5.436;2023-09-18T05:26:59;100127.84;;;18.52;100.00
73981;BME280;62348;51.412;5.436;2023-09-18T05:29:24;100118.50;;;18.53;100.00
73981;BME280;62348;51.412;5.436;2023-09-18T05:31:49;100123.19;;;18.52;100.00
73981;BME280;62348;51.412;5.436;2023-09-18T05:34:15;100121.56;;;18.51;100.00
73981;BME280;62348;51.412;5.436;2023-09-18T05:36:40;100121.09;;;18.49;100.00
73981;BME280;62348;51.412;5.436;2023-09-18T05:39:06;100123.34;;;18.47;100.00
73981;BME280;62348;51.412;5.436;2023-09-18T05:41:36;100110.81;;;18.46;100.00
73981;BME280;62348;51.412;5.436;2023-09-18T05:44:02;100126.44;;;18.46;100.00
73981;BME280;62348;51.412;5.436;2023-09-18T05:46:30;100139.31;;;18.45;100.00
73981;BME280;62348;51.412;5.436;2023-09-18T05:48:55;100144.00;;;18.45;100.00
73981;BME280;62348;51.412;5.436;2023-09-18T05:51:22;100145.13;;;18.44;100.00
73981;BME280;62348;51.412;5.436;2023-09-18T05:53:48;100135.31;;;18.43;100.00
73981;BME280;62348;51.412;5.436;2023-09-18T05:56:13;100144.31;;;18.43;100.00
73981;BME280;62348;51.412;5.436;2023-09-18T05:58:39;100154.47;;;18.43;100.00
73981;BME280;62348;51.412;5.436;2023-09-18T06:01:06;100153.31;;;18.44;100.00
73981;BME280;62348;51.412;5.436;2023-09-18T06:03:32;100162.69;;;18.43;100.00
73981;BME280;62348;51.412;5.436;2023-09-18T06:06:01;100167.69;;;18.41;100.00
73981;BME280;62348;51.412;5.436;2023-09-18T06:08:27;100163.00;;;18.41;100.00
73981;BME280;62348;51.412;5.436;2023-09-18T06:10:53;100163.16;;;18.45;100.00
73981;BME280;62348;51.412;5.436;2023-09-18T06:13:21;100150.94;;;18.42;100.00
73981;BME280;62348;51.412;5.436;2023-09-18T06:15:47;100155.94;;;18.40;100.00
73981;BME280;62348;51.412;5.436;2023-09-18T06:18:13;100166.53;;;18.42;100.00
73981;BME280;62348;51.412;5.436;2023-09-18T06:20:39;100161.41;;;18.40;100.00
73981;BME280;62348;51.412;5.436;2023-09-18T06:23:05;100171.53;;;18.40;100.00
73981;BME280;62348;51.412;5.436;2023-09-18T06:25:30;100177.84;;;18.40;100.00
73981;BME280;62348;51.412;5.436;2023-09-18T06:27:56;100175.75;;;18.37;100.00
73981;BME280;62348;51.412;5.436;2023-09-18T06:30:22;100182.03;;;18.38;100.00
73981;BME280;62348;51.412;5.436;2023-09-18T06:32:47;100187.50;;;18.38;100.00
73981;BME280;62348;51.412;5.436;2023-09-18T06:35:13;100188.97;;;18.35;100.00
73981;BME280;62348;51.412;5.436;2023-09-18T06:37:38;100199.59;;;18.37;100.00
73981;BME280;62348;51.412;5.436;2023-09-18T06:40:04;100196.03;;;18.36;100.00
73981;BME280;62348;51.412;5.436;2023-09-18T06:42:31;100192.16;;;18.37;100.00
73981;BME280;62348;51.412;5.436;2023-09-18T06:44:56;100200.38;;;18.37;100.00
73981;BME280;62348;51.412;5.436;2023-09-18T06:47:22;100203.91;;;18.38;100.00
73981;BME280;62348;51.412;5.436;2023-09-18T06:49:49;100220.00;;;18.39;100.00
73981;BME280;62348;51.412;5.436;2023-09-18T06:52:15;100214.53;;;18.39;100.00
73981;BME280;62348;51.412;5.436;2023-09-18T06:54:40;100208.75;;;18.41;100.00
73981;BME280;62348;51.412;5.436;2023-09-18T06:57:06;100216.94;;;18.41;100.00
73981;BME280;62348;51.412;5.436;2023-09-18T06:59:31;100225.63;;;18.43;100.00
73981;BME280;62348;51.412;5.436;2023-09-18T07:01:59;100223.38;;;18.45;100.00
73981;BME280;62348;51.412;5.436;2023-09-18T07:04:25;100219.00;;;18.44;100.00
73981;BME280;62348;51.412;5.436;2023-09-18T07:06:50;100211.31;;;18.46;100.00
73981;BME280;62348;51.412;5.436;2023-09-18T07:09:19;100219.00;;;18.44;100.00
73981;BME280;62348;51.412;5.436;2023-09-18T07:11:45;100224.50;;;18.44;100.00
73981;BME280;62348;51.412;5.436;2023-09-18T07:14:10;100224.50;;;18.44;100.00
73981;BME280;62348;51.412;5.436;2023-09-18T07:16:35;100238.69;;;18.46;100.00
73981;BME280;62348;51.412;5.436;2023-09-18T07:19:01;100239.78;;;18.45;100.00
73981;BME280;62348;51.412;5.436;2023-09-18T07:21:30;100237.84;;;18.45;100.00
73981;BME280;62348;51.412;5.436;2023-09-18T07:23:55;100234.00;;;18.46;100.00
73981;BME280;62348;51.412;5.436;2023-09-18T07:26:21;100239.47;;;18.46;100.00
73981;BME280;62348;51.412;5.436;2023-09-18T07:28:46;100246.53;;;18.47;100.00
73981;BME280;62348;51.412;5.436;2023-09-18T07:31:12;100251.22;;;18.47;100.00
73981;BME280;62348;51.412;5.436;2023-09-18T07:33:40;100242.69;;;18.48;100.00
73981;BME280;62348;51.412;5.436;2023-09-18T07:36:05;100253.31;;;18.50;100.00
73981;BME280;62348;51.412;5.436;2023-09-18T07:38:31;100253.31;;;18.50;100.00
73981;BME280;62348;51.412;5.436;2023-09-18T07:40:56;100250.56;;;18.50;100.00
73981;BME280;62348;51.412;5.436;2023-09-18T07:43:24;100248.16;;;18.48;100.00
73981;BME280;62348;51.412;5.436;2023-09-18T07:45:50;100254.56;;;18.52;100.00
73981;BME280;62348;51.412;5.436;2023-09-18T07:48:16;100249.09;;;18.52;100.00
73981;BME280;62348;51.412;5.436;2023-09-18T07:50:45;100254.41;;;18.58;100.00
73981;BME280;62348;51.412;5.436;2023-09-18T07:53:11;100249.06;;;18.61;100.00
73981;BME280;62348;51.412;5.436;2023-09-18T07:55:36;100249.53;;;18.63;100.00
73981;BME280;62348;51.412;5.436;2023-09-18T07:58:02;100251.44;;;18.63;100.00
73981;BME280;62348;51.412;5.436;2023-09-18T08:00:28;100245.66;;;18.64;100.00
73981;BME280;62348;51.412;5.436;2023-09-18T08:02:55;100250.34;;;18.64;100.00
73981;BME280;62348;51.412;5.436;2023-09-18T08:05:28;100241.31;;;18.63;100.00
73981;BME280;62348;51.412;5.436;2023-09-18T08:07:55;100246.81;;;18.63;100.00
73981;BME280;62348;51.412;5.436;2023-09-18T08:10:25;100249.22;;;18.65;100.00
73981;BME280;62348;51.412;5.436;2023-09-18T08:12:50;100251.13;;;18.64;100.00
73981;BME280;62348;51.412;5.436;2023-09-18T08:15:21;100256.28;;;18.66;100.00
73981;BME280;62348;51.412;5.436;2023-09-18T08:17:47;100255.31;;;18.70;100.00
73981;BME280;62348;51.412;5.436;2023-09-18T08:20:13;100273.13;;;18.85;100.00
73981;BME280;62348;51.412;5.436;2023-09-18T08:22:41;100261.81;;;18.96;100.00
73981;BME280;62348;51.412;5.436;2023-09-18T08:25:07;100266.88;;;19.06;100.00
73981;BME280;62348;51.412;5.436;2023-09-18T08:27:39;100269.91;;;19.13;100.00
73981;BME280;62348;51.412;5.436;2023-09-18T08:30:13;100276.78;;;19.19;100.00
73981;BME280;62348;51.412;5.436;2023-09-18T08:32:39;100278.75;;;19.19;100.00
73981;BME280;62348;51.412;5.436;2023-09-18T08:35:05;100288.75;;;19.15;100.00
73981;BME280;62348;51.412;5.436;2023-09-18T08:37:31;100290.16;;;19.21;100.00
73981;BME280;62348;51.412;5.436;2023-09-18T08:39:57;100293.50;;;19.26;100.00
73981;BME280;62348;51.412;5.436;2023-09-18T08:42:23;100298.19;;;19.26;100.00
73981;BME280;62348;51.412;5.436;2023-09-18T08:44:51;100297.47;;;19.38;100.00
73981;BME280;62348;51.412;5.436;2023-09-18T08:47:19;100295.00;;;19.45;100.00
73981;BME280;62348;51.412;5.436;2023-09-18T08:49:49;100285.63;;;19.46;100.00
73981;BME280;62348;51.412;5.436;2023-09-18T08:52:16;100276.28;;;19.47;100.00
73981;BME280;62348;51.412;5.436;2023-09-18T08:54:43;100282.38;;;19.53;100.00
73981;BME280;62348;51.412;5.436;2023-09-18T08:57:09;100288.81;;;19.69;100.00
73981;BME280;62348;51.412;5.436;2023-09-18T08:59:35;100293.34;;;19.74;100.00
73981;BME280;62348;51.412;5.436;2023-09-18T09:02:01;100286.44;;;19.88;100.00
73981;BME280;62348;51.412;5.436;2023-09-18T09:04:28;100289.94;;;20.10;100.00
73981;BME280;62348;51.412;5.436;2023-09-18T09:06:53;100287.81;;;20.28;100.00
73981;BME280;62348;51.412;5.436;2023-09-18T09:09:22;100282.59;;;20.47;99.86
73981;BME280;62348;51.412;5.436;2023-09-18T09:11:49;100300.50;;;20.66;99.85
73981;BME280;62348;51.412;5.436;2023-09-18T09:14:15;100293.75;;;20.76;98.98
73981;BME280;62348;51.412;5.436;2023-09-18T09:16:50;100298.09;;;20.77;97.97
73981;BME280;62348;51.412;5.436;2023-09-18T09:19:16;100304.16;;;20.70;97.76
73981;BME280;62348;51.412;5.436;2023-09-18T09:21:42;100302.22;;;20.71;97.76
73981;BME280;62348;51.412;5.436;2023-09-18T09:24:10;100298.88;;;20.65;98.89
73981;BME280;62348;51.412;5.436;2023-09-18T09:26:42;100295.66;;;20.75;96.52
73981;BME280;62348;51.412;5.436;2023-09-18T09:29:16;100298.66;;;20.82;96.04
73981;BME280;62348;51.412;5.436;2023-09-18T09:31:44;100306.69;;;20.88;96.96
73981;BME280;62348;51.412;5.436;2023-09-18T09:34:09;100298.78;;;20.98;96.01
73981;BME280;62348;51.412;5.436;2023-09-18T09:36:35;100311.47;;;21.03;94.97
73981;BME280;62348;51.412;5.436;2023-09-18T09:39:00;100312.97;;;21.00;95.03
73981;BME280;62348;51.412;5.436;2023-09-18T09:41:27;100318.59;;;20.92;94.92
73981;BME280;62348;51.412;5.436;2023-09-18T09:43:53;100299.38;;;20.79;94.07
73981;BME280;62348;51.412;5.436;2023-09-18T09:46:21;100302.41;;;20.65;94.40
73981;BME280;62348;51.412;5.436;2023-09-18T09:49:04;100297.50;;;20.71;97.61
73981;BME280;62348;51.412;5.436;2023-09-18T09:51:31;100281.94;;;20.75;95.31
73981;BME280;62348;51.412;5.436;2023-09-18T09:53:57;100293.28;;;20.86;95.68
73981;BME280;62348;51.412;5.436;2023-09-18T09:56:48;100300.16;;;21.04;97.13
73981;BME280;62348;51.412;5.436;2023-09-18T09:59:16;100303.91;;;21.12;92.66
73981;BME280;62348;51.412;5.436;2023-09-18T10:01:48;100305.31;;;21.06;92.52
73981;BME280;62348;51.412;5.436;2023-09-18T10:04:15;100321.19;;;21.13;96.19
73981;BME280;62348;51.412;5.436;2023-09-18T10:07:06;100324.66;;;20.97;95.09
73981;BME280;62348;51.412;5.436;2023-09-18T10:09:34;100334.38;;;20.82;92.28
73981;BME280;62348;51.412;5.436;2023-09-18T10:12:01;100337.59;;;20.72;93.97
73981;BME280;62348;51.412;5.436;2023-09-18T10:14:31;100336.88;;;20.63;95.15
73981;BME280;62348;51.412;5.436;2023-09-18T10:17:12;100339.34;;;20.56;96.08
73981;BME280;62348;51.412;5.436;2023-09-18T10:24:46;100339.47;;;20.47;98.27
73981;BME280;62348;51.412;5.436;2023-09-18T10:27:14;100334.31;;;20.45;97.12
73981;BME280;62348;51.412;5.436;2023-09-18T10:29:43;100334.63;;;20.44;96.16
73981;BME280;62348;51.412;5.436;2023-09-18T10:32:13;100328.94;;;20.49;97.46
73981;BME280;62348;51.412;5.436;2023-09-18T10:34:40;100340.25;;;20.47;95.29
73981;BME280;62348;51.412;5.436;2023-09-18T10:37:07;100339.47;;;20.47;96.62
73981;BME280;62348;51.412;5.436;2023-09-18T10:39:38;100337.06;;;20.45;97.54
73981;BME280;62348;51.412;5.436;2023-09-18T10:42:08;100337.72;;;20.42;95.59
73981;BME280;62348;51.412;5.436;2023-09-18T10:44:34;100330.63;;;20.41;97.34
73981;BME280;62348;51.412;5.436;2023-09-18T10:47:02;100335.63;;;20.39;97.35
73981;BME280;62348;51.412;5.436;2023-09-18T10:49:30;100331.31;;;20.38;94.93
73981;BME280;62348;51.412;5.436;2023-09-18T10:51:56;100325.47;;;20.40;96.01
73981;BME280;62348;51.412;5.436;2023-09-18T10:54:24;100320.81;;;20.53;95.97
73981;BME280;62348;51.412;5.436;2023-09-18T10:56:51;100320.41;;;20.63;96.13
73981;BME280;62348;51.412;5.436;2023-09-18T10:59:17;100324.06;;;20.67;95.90
73981;BME280;62348;51.412;5.436;2023-09-18T11:01:44;100316.28;;;20.69;94.39
73981;BME280;62348;51.412;5.436;2023-09-18T11:04:10;100327.84;;;20.75;95.55
73981;BME280;62348;51.412;5.436;2023-09-18T11:09:31;100302.78;;;20.89;94.73
73981;BME280;62348;51.412;5.436;2023-09-18T11:20:06;100326.38;;;20.77;94.14
73981;BME280;62348;51.412;5.436;2023-09-18T11:28:01;100323.72;;;20.81;92.03
73981;BME280;62348;51.412;5.436;2023-09-18T11:30:28;100336.78;;;20.84;91.67
73981;BME280;62348;51.412;5.436;2023-09-18T11:32:55;100335.41;;;20.90;87.78
73981;BME280;62348;51.412;5.436;2023-09-18T11:35:21;100332.91;;;20.97;86.83
73981;BME280;62348;51.412;5.436;2023-09-18T11:37:47;100325.00;;;21.08;87.40
73981;BME280;62348;51.412;5.436;2023-09-18T11:40:33;100314.69;;;21.17;88.09
73981;BME280;62348;51.412;5.436;2023-09-18T11:43:24;100312.25;;;21.28;89.21
73981;BME280;62348;51.412;5.436;2023-09-18T11:45:59;100310.78;;;21.31;82.81
73981;BME280;62348;51.412;5.436;2023-09-18T11:48:26;100307.53;;;21.41;84.69
73981;BME280;62348;51.412;5.436;2023-09-18T11:50:58;100306.50;;;21.45;85.06
73981;BME280;62348;51.412;5.436;2023-09-18T11:53:27;100305.94;;;21.52;84.59
73981;BME280;62348;51.412;5.436;2023-09-18T11:55:53;100309.25;;;21.58;84.05
73981;BME280;62348;51.412;5.436;2023-09-18T11:58:18;100311.66;;;21.59;82.38
73981;BME280;62348;51.412;5.436;2023-09-18T12:00:49;100303.84;;;21.61;82.27
73981;BME280;62348;51.412;5.436;2023-09-18T12:03:19;100307.84;;;21.64;83.24
73981;BME280;62348;51.412;5.436;2023-09-18T12:05:56;100303.69;;;21.70;84.84
73981;BME280;62348;51.412;5.436;2023-09-18T12:08:22;100297.06;;;21.71;81.18
73981;BME280;62348;51.412;5.436;2023-09-18T12:10:50;100292.78;;;21.74;81.98
73981;BME280;62348;51.412;5.436;2023-09-18T12:13:15;100294.75;;;21.73;82.83
73981;BME280;62348;51.412;5.436;2023-09-18T12:15:41;100296.38;;;21.62;80.51
73981;BME280;62348;51.412;5.436;2023-09-18T12:18:10;100293.09;;;21.56;82.81
73981;BME280;62348;51.412;5.436;2023-09-18T12:20:37;100292.75;;;21.58;80.62
73981;BME280;62348;51.412;5.436;2023-09-18T12:23:03;100286.44;;;21.57;82.37
73981;BME280;62348;51.412;5.436;2023-09-18T12:25:29;100285.38;;;21.62;82.73
73981;BME280;62348;51.412;5.436;2023-09-18T12:27:55;100284.69;;;21.65;82.76
73981;BME280;62348;51.412;5.436;2023-09-18T12:30:21;100284.09;;;21.72;82.99
73981;BME280;62348;51.412;5.436;2023-09-18T12:32:49;100278.78;;;21.79;83.25
73981;BME280;62348;51.412;5.436;2023-09-18T12:35:14;100282.88;;;21.85;84.00
73981;BME280;62348;51.412;5.436;2023-09-18T12:37:40;100283.59;;;21.82;83.29
73981;BME280;62348;51.412;5.436;2023-09-18T12:40:07;100283.41;;;21.75;81.32
73981;BME280;62348;51.412;5.436;2023-09-18T12:42:46;100283.19;;;21.68;81.54
73981;BME280;62348;51.412;5.436;2023-09-18T12:45:11;100286.19;;;21.62;82.94
73981;BME280;62348;51.412;5.436;2023-09-18T12:47:38;100285.84;;;21.64;82.98
73981;BME280;62348;51.412;5.436;2023-09-18T12:50:05;100279.44;;;21.60;83.36
73981;BME280;62348;51.412;5.436;2023-09-18T12:52:32;100262.03;;;21.56;82.61
73981;BME280;62348;51.412;5.436;2023-09-18T12:54:58;100269.28;;;21.48;83.45
73981;BME280;62348;51.412;5.436;2023-09-18T12:57:25;100272.94;;;21.40;83.83
73981;BME280;62348;51.412;5.436;2023-09-18T12:59:50;100278.22;;;21.33;83.75
73981;BME280;62348;51.412;5.436;2023-09-18T13:02:18;100273.66;;;21.24;85.83
73981;BME280;62348;51.412;5.436;2023-09-18T13:04:56;100278.03;;;21.13;88.15